Accueil
METAR-TAF:

METAR-TAF

Aéroports :

Aéroport international de Norwich

Norwich, Angleterre

latitude: 52-38N, longitude: 001-18E, altitude: 14 m

Observation

Le bulletin a été fait il y a 17 minutes, à 07:50 UTC
Vent 5 kt de nord/nord-est, variant entre nord et est/nord-est
Température 7°C
Humidité 76%
Pression 1031 hPa
Visibilité 10 km ou plus
Quelques nuages à une hauteur de 2500 ft

METAR: EGSH 170750Z 03005KT 360V060 9999 FEW025 07/03 Q1031

Heure: 09:07 (08:07 UTC)

Prévision

Le bulletin a été fait il y a 3 heures et 7 minutes, à 05:00 UTC
Prévision valable du 17 à 06 UTC au 17 à 15 UTC
Vent 5 kt de nord/nord-est
Visibilité 10 km ou plus
Quelques nuages à une hauteur de 4500 ft
Probabilité 30%
du 17 à 06 UTC au 17 à 07 UTC
Visibilité: 3000 m
brume, Brouillard mince

TAF: EGSH 170500Z 1706/1715 02005KT 9999 FEW045 PROB30 1706/1707 3000 BR MIFG

Observations et prévisions météorologiques de plus de 4000 aéroports (messages METAR et TAF).

Les stations disponibles sont représentées par des disques jaunes et rouges sur la carte.

Passer la souris dessus pour voir le nom de la station.

Cliquer dessus pour voir les observations et prévisions météorologiques.

Pour changer de carte: cliquez sur les boutons verts avec une croix noire pour zoomer, sur le bouton vert avec un tiret pour effectuer un zoom arrière, ou sur les flèches vertes pour les cartes adjacentes.


METAR-TAF: